Time,TemperatureF,DewpointF,PressureIn,WindDirection,WindDirectionDegrees,WindSpeedMPH,WindSpeedGustMPH,Humidity,HourlyPrecipIn,Conditions,Clouds,dailyrainin,SolarRadiationWatts/m^2,SoftwareType,DateUTC
2013-01-06 00:08:00,46.4,38.9,30.20,SSW,205,0.0,0.0,75,0.00,,,0.00,0,Wunderground v.1.15,2013-01-06 08:08:00,
2013-01-06 00:13:00,46.3,38.8,30.20,SSW,205,0.0,0.0,75,0.00,,,0.00,0,Wunderground v.1.15,2013-01-06 08:13:00,
2013-01-06 00:23:00,46.3,38.8,30.19,SSW,204,0.0,0.0,75,0.00,,,0.00,0,Wunderground v.1.15,2013-01-06 08:23:00,
2013-01-06 00:33:00,46.4,38.9,30.19,SSW,205,0.0,0.0,75,0.00,,,0.00,0,Wunderground v.1.15,2013-01-06 08:33:00,
2013-01-06 00:38:00,46.5,39.0,30.19,SSW,205,0.0,2.0,75,0.00,,,0.00,0,Wunderground v.1.15,2013-01-06 08:38:00,
2013-01-06 00:48:00,46.5,39.0,30.19,SSW,205,1.0,1.0,75,0.00,,,0.00,0,Wunderground v.1.15,2013-01-06 08:48:00,
2013-01-06 00:53:00,46.4,38.9,30.19,SSW,204,0.0,1.0,75,0.00,,,0.00,0,Wunderground v.1.15,2013-01-06 08:53:00,
2013-01-06 01:03:00,46.1,38.6,30.19,SSW,204,0.0,0.0,75,0.00,,,0.00,0,Wunderground v.1.15,2013-01-06 09:03:00,
2013-01-06 01:13:00,46.0,38.5,30.19,SSW,205,0.0,0.0,75,0.00,,,0.00,0,Wunderground v.1.15,2013-01-06 09:13:00,
2013-01-06 01:18:00,45.9,38.4,30.19,SSW,204,0.0,1.0,75,0.00,,,0.00,0,Wunderground v.1.15,2013-01-06 09:18:00,
2013-01-06 01:28:00,45.9,38.4,30.18,SSW,205,0.0,0.0,75,0.00,,,0.00,0,Wunderground v.1.15,2013-01-06 09:28:00,
2013-01-06 01:38:00,45.9,38.4,30.18,SSW,204,0.0,0.0,75,0.00,,,0.00,0,Wunderground v.1.15,2013-01-06 09:38:00,
2013-01-06 01:48:00,45.6,38.1,30.18,SSW,205,0.0,2.0,75,0.00,,,0.00,0,Wunderground v.1.15,2013-01-06 09:48:00,
2013-01-06 01:53:00,45.5,38.0,30.18,SSW,204,0.0,2.0,75,0.00,,,0.00,0,Wunderground v.1.15,2013-01-06 09:53:00,
2013-01-06 02:03:00,45.4,37.9,30.18,SSW,205,0.0,0.0,75,0.00,,,0.00,0,Wunderground v.1.15,2013-01-06 10:03:00,
2013-01-06 02:08:00,45.2,37.4,30.18,SSW,204,0.0,0.0,74,0.00,,,0.00,0,Wunderground v.1.15,2013-01-06 10:08:00,
2013-01-06 02:18:00,45.1,37.6,30.18,SSW,204,0.0,0.0,75,0.00,,,0.00,0,Wunderground v.1.15,2013-01-06 10:18:00,
2013-01-06 02:28:00,45.1,37.6,30.18,SSW,205,0.0,0.0,75,0.00,,,0.00,0,Wunderground v.1.15,2013-01-06 10:28:00,
2013-01-06 02:33:00,45.4,37.6,30.18,SSW,205,0.0,0.0,74,0.00,,,0.00,0,Wunderground v.1.15,2013-01-06 10:33:00,
2013-01-06 02:43:00,46.0,38.2,30.18,SSW,205,1.0,2.0,74,0.00,,,0.00,0,Wunderground v.1.15,2013-01-06 10:43:00,
2013-01-06 02:53:00,46.3,38.1,30.18,SSW,205,0.0,1.0,73,0.00,,,0.00,0,Wunderground v.1.15,2013-01-06 10:53:00,
2013-01-06 02:58:00,46.6,38.4,30.17,SSW,205,0.0,2.0,73,0.00,,,0.00,0,Wunderground v.1.15,2013-01-06 10:58:00,
2013-01-06 03:08:00,47.2,39.0,30.17,SSW,200,1.0,1.0,73,0.00,,,0.00,0,Wunderground v.1.15,2013-01-06 11:08:00,
2013-01-06 03:18:00,47.4,39.2,30.17,SSW,200,0.0,0.0,73,0.00,,,0.00,0,Wunderground v.1.15,2013-01-06 11:18:00,
2013-01-06 03:28:00,47.7,39.5,30.17,SSW,200,0.0,0.0,73,0.00,,,0.00,0,Wunderground v.1.15,2013-01-06 11:28:00,
2013-01-06 03:33:00,47.8,39.6,30.17,SSW,200,0.0,0.0,73,0.00,,,0.00,0,Wunderground v.1.15,2013-01-06 11:33:00,
2013-01-06 03:43:00,47.8,39.2,30.17,SSW,200,0.0,0.0,72,0.00,,,0.00,0,Wunderground v.1.15,2013-01-06 11:43:00,
2013-01-06 03:48:00,47.8,39.2,30.17,SSW,200,0.0,1.0,72,0.00,,,0.00,0,Wunderground v.1.15,2013-01-06 11:48:00,
2013-01-06 03:58:00,47.8,39.6,30.17,SSW,200,0.0,0.0,73,0.00,,,0.00,0,Wunderground v.1.15,2013-01-06 11:58:00,
2013-01-06 04:08:00,47.7,39.5,30.17,SSW,200,0.0,0.0,73,0.00,,,0.00,0,Wunderground v.1.15,2013-01-06 12:08:00,
2013-01-06 04:13:00,47.8,39.9,30.17,SSW,200,0.0,0.0,74,0.00,,,0.00,0,Wunderground v.1.15,2013-01-06 12:13:00,
2013-01-06 04:23:00,47.2,40.0,30.17,SSW,200,1.0,1.0,76,0.00,,,0.01,0,Wunderground v.1.15,2013-01-06 12:23:00,
2013-01-06 04:33:00,46.6,40.1,30.18,SSW,200,1.0,1.0,78,0.04,,,0.02,0,Wunderground v.1.15,2013-01-06 12:33:00,
2013-01-06 04:38:00,46.6,40.4,30.18,SSW,200,2.0,2.0,79,0.04,,,0.02,0,Wunderground v.1.15,2013-01-06 12:38:00,
2013-01-06 04:48:00,46.8,41.3,30.18,SSW,200,1.0,3.0,81,0.07,,,0.03,0,Wunderground v.1.15,2013-01-06 12:48:00,
2013-01-06 04:53:00,46.9,41.4,30.18,SSW,200,1.0,3.0,81,0.06,,,0.04,0,Wunderground v.1.15,2013-01-06 12:53:00,
2013-01-06 05:03:00,46.9,41.7,30.19,SSW,200,2.0,3.0,82,0.07,,,0.05,0,Wunderground v.1.15,2013-01-06 13:03:00,
2013-01-06 05:13:00,46.7,41.8,30.19,SSW,200,0.0,1.0,83,0.05,,,0.06,0,Wunderground v.1.15,2013-01-06 13:13:00,
2013-01-06 05:18:00,46.7,41.8,30.19,SSW,200,0.0,0.0,83,0.05,,,0.06,0,Wunderground v.1.15,2013-01-06 13:18:00,
2013-01-06 05:28:00,46.2,41.6,30.18,South,189,2.0,5.0,84,0.00,,,0.06,0,Wunderground v.1.15,2013-01-06 13:28:00,
2013-01-06 05:33:00,46.0,41.7,30.17,East,84,3.0,5.0,85,0.00,,,0.06,0,Wunderground v.1.15,2013-01-06 13:33:00,
2013-01-06 05:43:00,46.1,41.8,30.17,ENE,78,2.0,3.0,85,0.00,,,0.06,0,Wunderground v.1.15,2013-01-06 13:43:00,
2013-01-06 05:53:00,46.4,42.1,30.17,ENE,78,1.0,1.0,85,0.00,,,0.06,0,Wunderground v.1.15,2013-01-06 13:53:00,
2013-01-06 06:03:00,46.7,42.7,30.17,ENE,78,0.0,0.0,86,0.00,,,0.06,0,Wunderground v.1.15,2013-01-06 14:03:00,
2013-01-06 06:08:00,46.6,42.6,30.18,ENE,78,0.0,0.0,86,0.00,,,0.06,0,Wunderground v.1.15,2013-01-06 14:08:00,
2013-01-06 06:18:00,46.4,42.4,30.18,ENE,78,1.0,1.0,86,0.00,,,0.06,0,Wunderground v.1.15,2013-01-06 14:18:00,
2013-01-06 06:23:00,46.3,42.3,30.18,ENE,78,1.0,1.0,86,0.00,,,0.06,0,Wunderground v.1.15,2013-01-06 14:23:00,
2013-01-06 06:33:00,46.4,42.4,30.18,ENE,78,0.0,0.0,86,0.00,,,0.06,0,Wunderground v.1.15,2013-01-06 14:33:00,
2013-01-06 06:43:00,46.2,42.2,30.19,ENE,77,0.0,0.0,86,0.00,,,0.06,0,Wunderground v.1.15,2013-01-06 14:43:00,
2013-01-06 06:48:00,46.1,42.1,30.18,ENE,77,0.0,4.0,86,0.00,,,0.06,0,Wunderground v.1.15,2013-01-06 14:48:00,
2013-01-06 06:58:00,45.9,41.9,30.19,ENE,77,0.0,0.0,86,0.00,,,0.06,0,Wunderground v.1.15,2013-01-06 14:58:00,
2013-01-06 07:08:00,46.1,42.4,30.20,ENE,78,0.0,0.0,87,0.00,,,0.07,5,Wunderground v.1.15,2013-01-06 15:08:00,
2013-01-06 07:13:00,46.1,42.4,30.19,ENE,78,0.0,0.0,87,0.00,,,0.07,11,Wunderground v.1.15,2013-01-06 15:13:00,
2013-01-06 07:23:00,46.3,42.6,30.19,ENE,78,0.0,0.0,87,0.00,,,0.07,25,Wunderground v.1.15,2013-01-06 15:23:00,
2013-01-06 07:33:00,46.3,42.6,30.19,ENE,78,0.0,0.0,87,0.00,,,0.07,30,Wunderground v.1.15,2013-01-06 15:33:00,
2013-01-06 07:43:00,46.3,42.6,30.19,ENE,77,0.0,0.0,87,0.00,,,0.07,44,Wunderground v.1.15,2013-01-06 15:43:00,
2013-01-06 07:48:00,46.4,42.7,30.19,ENE,77,0.0,0.0,87,0.00,,,0.07,39,Wunderground v.1.15,2013-01-06 15:48:00,
2013-01-06 07:58:00,46.7,43.0,30.19,ENE,77,0.0,0.0,87,0.00,,,0.07,63,Wunderground v.1.15,2013-01-06 15:58:00,
2013-01-06 08:03:00,46.9,43.2,30.19,ENE,77,0.0,0.0,87,0.00,,,0.07,118,Wunderground v.1.15,2013-01-06 16:03:00,
2013-01-06 08:13:00,47.6,44.2,30.19,ENE,78,0.0,0.0,88,0.00,,,0.07,181,Wunderground v.1.15,2013-01-06 16:13:00,
2013-01-06 08:23:00,48.8,45.4,30.19,ENE,77,0.0,0.0,88,0.00,,,0.07,195,Wunderground v.1.15,2013-01-06 16:23:00,
2013-01-06 08:28:00,49.0,45.6,30.19,ENE,78,0.0,0.0,88,0.00,,,0.07,207,Wunderground v.1.15,2013-01-06 16:28:00,
2013-01-06 08:38:00,49.3,45.6,30.19,ENE,78,0.0,0.0,87,0.00,,,0.07,229,Wunderground v.1.15,2013-01-06 16:38:00,
2013-01-06 08:48:00,50.4,46.7,30.20,ENE,78,0.0,0.0,87,0.00,,,0.07,255,Wunderground v.1.15,2013-01-06 16:48:00,
2013-01-06 08:53:00,50.3,46.6,30.20,ENE,78,0.0,0.0,87,0.00,,,0.07,274,Wunderground v.1.15,2013-01-06 16:53:00,
2013-01-06 09:03:00,51.2,47.2,30.20,ENE,77,0.0,0.0,86,0.00,,,0.07,301,Wunderground v.1.15,2013-01-06 17:03:00,
2013-01-06 09:08:00,51.7,47.3,30.20,ENE,78,0.0,0.0,85,0.00,,,0.07,313,Wunderground v.1.15,2013-01-06 17:08:00,
2013-01-06 09:18:00,52.5,47.8,30.20,ENE,78,1.0,1.0,84,0.00,,,0.07,445,Wunderground v.1.15,2013-01-06 17:18:00,
2013-01-06 09:28:00,52.1,46.8,30.20,ENE,77,0.0,0.0,82,0.00,,,0.07,200,Wunderground v.1.15,2013-01-06 17:28:00,
2013-01-06 09:38:00,53.8,47.8,30.20,ENE,78,0.0,0.0,80,0.00,,,0.07,506,Wunderground v.1.15,2013-01-06 17:38:00,
2013-01-06 09:43:00,55.2,47.8,30.20,ENE,77,0.0,0.0,76,0.00,,,0.07,285,Wunderground v.1.15,2013-01-06 17:43:00,
2013-01-06 09:53:00,54.1,46.3,30.20,ENE,77,1.0,2.0,75,0.00,,,0.07,183,Wunderground v.1.15,2013-01-06 17:53:00,
2013-01-06 09:58:00,54.9,47.1,30.19,ENE,77,0.0,0.0,75,0.00,,,0.07,540,Wunderground v.1.15,2013-01-06 17:58:00,
2013-01-06 10:03:00,55.5,47.0,30.19,ENE,77,0.0,0.0,73,0.00,,,0.07,410,Wunderground v.1.15,2013-01-06 18:03:00,
2013-01-06 10:13:00,54.3,45.5,30.19,South,180,2.0,3.0,72,0.00,,,0.07,165,Wunderground v.1.15,2013-01-06 18:13:00,
2013-01-06 10:23:00,53.6,44.0,30.18,South,190,2.0,3.0,70,0.00,,,0.07,332,Wunderground v.1.15,2013-01-06 18:23:00,
2013-01-06 10:33:00,53.9,44.0,30.18,SSW,200,2.0,2.0,69,0.00,,,0.07,121,Wunderground v.1.15,2013-01-06 18:33:00,
2013-01-06 10:38:00,54.2,44.6,30.18,SSW,200,2.0,4.0,70,0.00,,,0.07,250,Wunderground v.1.15,2013-01-06 18:38:00,
2013-01-06 10:48:00,56.0,45.2,30.17,SSW,200,2.0,2.0,67,0.00,,,0.07,455,Wunderground v.1.15,2013-01-06 18:48:00,
2013-01-06 10:53:00,55.9,45.1,30.17,SSW,199,2.0,2.0,67,0.00,,,0.07,294,Wunderground v.1.15,2013-01-06 18:53:00,
2013-01-06 11:03:00,55.5,44.3,30.16,SSW,203,1.0,3.0,66,0.00,,,0.07,241,Wunderground v.1.15,2013-01-06 19:03:00,
2013-01-06 11:08:00,55.5,43.9,30.16,SSW,200,1.0,1.0,65,0.00,,,0.07,165,Wunderground v.1.15,2013-01-06 19:08:00,
2013-01-06 11:18:00,54.8,44.0,30.16,SSW,200,1.0,2.0,67,0.00,,,0.07,285,Wunderground v.1.15,2013-01-06 19:18:00,
2013-01-06 11:28:00,55.7,44.1,30.15,SSW,196,3.0,5.0,65,0.00,,,0.07,211,Wunderground v.1.15,2013-01-06 19:28:00,
2013-01-06 11:38:00,56.0,43.6,30.15,SSW,207,4.0,4.0,63,0.00,,,0.07,181,Wunderground v.1.15,2013-01-06 19:38:00,
2013-01-06 11:43:00,55.9,43.5,30.15,SSW,212,4.0,4.0,63,0.00,,,0.07,661,Wunderground v.1.15,2013-01-06 19:43:00,
2013-01-06 11:53:00,55.8,43.4,30.14,SSW,209,5.0,5.0,63,0.00,,,0.07,605,Wunderground v.1.15,2013-01-06 19:53:00,
2013-01-06 12:03:00,56.3,43.0,30.14,SW,216,4.0,4.0,61,0.00,,,0.07,575,Wunderground v.1.15,2013-01-06 20:03:00,
2013-01-06 12:18:00,55.0,42.2,30.13,WSW,246,5.0,5.0,62,0.00,,,0.07,84,Wunderground v.1.15,2013-01-06 20:18:00,
2013-01-06 12:23:00,54.6,42.3,30.13,WSW,252,4.0,5.0,63,0.00,,,0.07,172,Wunderground v.1.15,2013-01-06 20:23:00,
2013-01-06 12:28:00,54.5,42.6,30.13,WSW,253,4.0,7.0,64,0.00,,,0.07,91,Wunderground v.1.15,2013-01-06 20:28:00,
2013-01-06 12:38:00,54.5,43.0,30.13,SW,231,3.0,3.0,65,0.00,,,0.07,58,Wunderground v.1.15,2013-01-06 20:38:00,
2013-01-06 12:48:00,54.5,43.8,30.12,SW,234,3.0,10.0,67,0.00,,,0.07,176,Wunderground v.1.15,2013-01-06 20:48:00,
2013-01-06 12:58:00,54.4,43.7,30.12,WSW,242,3.0,5.0,67,0.00,,,0.07,95,Wunderground v.1.15,2013-01-06 20:58:00,
2013-01-06 13:03:00,54.4,44.1,30.11,SSW,209,4.0,5.0,68,0.00,,,0.07,90,Wunderground v.1.15,2013-01-06 21:03:00,
2013-01-06 13:13:00,54.4,44.1,30.11,SW,220,4.0,4.0,68,0.00,,,0.07,90,Wunderground v.1.15,2013-01-06 21:13:00,
2013-01-06 13:23:00,55.9,44.7,30.10,SSW,198,5.0,5.0,66,0.00,,,0.07,652,Wunderground v.1.15,2013-01-06 21:23:00,
2013-01-06 13:28:00,57.2,44.3,30.10,SSW,206,6.0,6.0,62,0.00,,,0.07,571,Wunderground v.1.15,2013-01-06 21:28:00,
2013-01-06 13:38:00,55.6,42.8,30.10,SW,236,8.0,8.0,62,0.00,,,0.07,95,Wunderground v.1.15,2013-01-06 21:38:00,
2013-01-06 13:43:00,55.4,42.6,30.10,WSW,257,7.0,8.0,62,0.00,,,0.07,79,Wunderground v.1.15,2013-01-06 21:43:00,
2013-01-06 13:53:00,56.0,42.7,30.09,West,270,4.0,8.0,61,0.00,,,0.07,522,Wunderground v.1.15,2013-01-06 21:53:00,
2013-01-06 14:03:00,56.0,41.9,30.09,SSW,208,6.0,6.0,59,0.00,,,0.07,90,Wunderground v.1.15,2013-01-06 22:03:00,
2013-01-06 14:13:00,56.5,42.3,30.08,SW,231,3.0,5.0,59,0.00,,,0.07,185,Wunderground v.1.15,2013-01-06 22:13:00,
2013-01-06 14:23:00,56.0,42.7,30.09,SSW,195,5.0,5.0,61,0.00,,,0.07,118,Wunderground v.1.15,2013-01-06 22:23:00,
2013-01-06 14:28:00,55.7,43.7,30.08,SW,225,6.0,6.0,64,0.00,,,0.07,185,Wunderground v.1.15,2013-01-06 22:28:00,
2013-01-06 14:38:00,55.9,43.9,30.08,SSW,198,5.0,5.0,64,0.00,,,0.07,202,Wunderground v.1.15,2013-01-06 22:38:00,
2013-01-06 14:43:00,56.6,44.1,30.08,WSW,243,3.0,6.0,63,0.00,,,0.07,153,Wunderground v.1.15,2013-01-06 22:43:00,
2013-01-06 14:53:00,57.2,44.3,30.08,SSW,203,6.0,12.0,62,0.00,,,0.07,473,Wunderground v.1.15,2013-01-06 22:53:00,
2013-01-06 15:03:00,57.0,42.8,30.08,SSW,201,8.0,8.0,59,0.00,,,0.07,378,Wunderground v.1.15,2013-01-06 23:03:00,
2013-01-06 15:08:00,56.9,42.3,30.08,WSW,246,7.0,7.0,58,0.00,,,0.07,188,Wunderground v.1.15,2013-01-06 23:08:00,
2013-01-06 15:18:00,56.3,42.6,30.08,SW,228,4.0,4.0,60,0.00,,,0.07,105,Wunderground v.1.15,2013-01-06 23:18:00,
2013-01-06 15:28:00,55.8,41.7,30.08,SW,235,6.0,6.0,59,0.00,,,0.07,274,Wunderground v.1.15,2013-01-06 23:28:00,
2013-01-06 15:33:00,55.8,41.2,30.08,WSW,242,7.0,7.0,58,0.00,,,0.07,79,Wunderground v.1.15,2013-01-06 23:33:00,
2013-01-06 15:43:00,55.1,41.5,30.08,WSW,254,6.0,11.0,60,0.00,,,0.07,83,Wunderground v.1.15,2013-01-06 23:43:00,
2013-01-06 15:53:00,54.5,41.3,30.09,SW,221,7.0,7.0,61,0.00,,,0.07,86,Wunderground v.1.15,2013-01-06 23:53:00,
2013-01-06 16:03:00,54.2,41.9,30.08,WSW,254,6.0,9.0,63,0.00,,,0.07,95,Wunderground v.1.15,2013-01-07 00:03:00,
2013-01-06 16:08:00,54.7,42.3,30.08,SW,235,5.0,5.0,63,0.00,,,0.07,155,Wunderground v.1.15,2013-01-07 00:08:00,
2013-01-06 16:18:00,55.6,42.8,30.07,SSW,198,4.0,4.0,62,0.00,,,0.07,95,Wunderground v.1.15,2013-01-07 00:18:00,
2013-01-06 16:28:00,54.8,42.9,30.06,SSW,196,3.0,5.0,64,0.00,,,0.07,35,Wunderground v.1.15,2013-01-07 00:28:00,
2013-01-06 16:33:00,54.5,43.0,30.07,South,184,4.0,5.0,65,0.00,,,0.07,16,Wunderground v.1.15,2013-01-07 00:33:00,
2013-01-06 16:43:00,53.7,43.4,30.07,SSW,203,3.0,6.0,68,0.00,,,0.07,11,Wunderground v.1.15,2013-01-07 00:43:00,
2013-01-06 16:53:00,53.0,43.1,30.07,SSW,199,2.0,3.0,69,0.00,,,0.07,7,Wunderground v.1.15,2013-01-07 00:53:00,
2013-01-06 17:03:00,52.6,43.1,30.07,SSW,196,2.0,3.0,70,0.00,,,0.07,7,Wunderground v.1.15,2013-01-07 01:03:00,
2013-01-06 17:08:00,52.4,42.9,30.07,SW,217,1.0,2.0,70,0.00,,,0.07,0,Wunderground v.1.15,2013-01-07 01:08:00,
2013-01-06 17:18:00,52.3,43.2,30.06,SW,216,0.0,0.0,71,0.00,,,0.07,0,Wunderground v.1.15,2013-01-07 01:18:00,
2013-01-06 17:23:00,52.2,43.1,30.06,SW,216,0.0,0.0,71,0.00,,,0.07,0,Wunderground v.1.15,2013-01-07 01:23:00,
2013-01-06 17:33:00,52.2,43.1,30.06,SW,216,0.0,0.0,71,0.00,,,0.07,0,Wunderground v.1.15,2013-01-07 01:33:00,
2013-01-06 17:38:00,52.2,43.1,30.06,SW,216,0.0,0.0,71,0.00,,,0.07,0,Wunderground v.1.15,2013-01-07 01:38:00,
2013-01-06 17:48:00,52.2,43.4,30.06,SW,216,0.0,10.0,72,0.00,,,0.07,0,Wunderground v.1.15,2013-01-07 01:48:00,
2013-01-06 17:58:00,52.1,43.3,30.05,SW,215,0.0,0.0,72,0.00,,,0.07,0,Wunderground v.1.15,2013-01-07 01:58:00,
2013-01-06 18:08:00,51.9,43.5,30.05,SW,215,0.0,0.0,73,0.00,,,0.07,0,Wunderground v.1.15,2013-01-07 02:08:00,
2013-01-06 18:13:00,51.8,43.4,30.05,SW,215,0.0,0.0,73,0.00,,,0.07,0,Wunderground v.1.15,2013-01-07 02:13:00,
2013-01-06 18:23:00,51.8,43.8,30.05,SW,215,0.0,0.0,74,0.00,,,0.07,0,Wunderground v.1.15,2013-01-07 02:23:00,
2013-01-06 18:33:00,51.8,44.1,30.04,SW,215,0.0,0.0,75,0.00,,,0.07,0,Wunderground v.1.15,2013-01-07 02:33:00,
2013-01-06 18:38:00,51.8,44.5,30.05,SW,215,0.0,0.0,76,0.00,,,0.08,0,Wunderground v.1.15,2013-01-07 02:38:00,
2013-01-06 18:48:00,51.3,44.3,30.05,SW,215,0.0,0.0,77,0.06,,,0.09,0,Wunderground v.1.15,2013-01-07 02:48:00,
2013-01-06 18:58:00,50.8,44.2,30.05,SW,215,0.0,0.0,78,0.00,,,0.09,0,Wunderground v.1.15,2013-01-07 02:58:00,
2013-01-06 19:03:00,50.8,44.5,30.05,SW,215,0.0,0.0,79,0.00,,,0.09,0,Wunderground v.1.15,2013-01-07 03:03:00,
2013-01-06 19:13:00,50.6,44.7,30.04,South,190,0.0,0.0,80,0.00,,,0.09,0,Wunderground v.1.15,2013-01-07 03:13:00,
2013-01-06 19:23:00,50.5,44.9,30.04,South,181,1.0,1.0,81,0.00,,,0.09,0,Wunderground v.1.15,2013-01-07 03:23:00,
2013-01-06 19:28:00,50.4,44.8,30.04,South,180,0.0,0.0,81,0.00,,,0.09,0,Wunderground v.1.15,2013-01-07 03:28:00,
2013-01-06 19:38:00,50.6,45.0,30.04,South,180,0.0,0.0,81,0.00,,,0.09,0,Wunderground v.1.15,2013-01-07 03:38:00,
2013-01-06 19:48:00,50.5,45.2,30.04,East,80,0.0,4.0,82,0.00,,,0.09,0,Wunderground v.1.15,2013-01-07 03:48:00,
2013-01-06 19:58:00,50.1,44.8,30.04,ENE,76,1.0,1.0,82,0.00,,,0.09,0,Wunderground v.1.15,2013-01-07 03:58:00,
2013-01-06 20:03:00,49.9,44.9,30.04,ENE,76,1.0,1.0,83,0.00,,,0.09,0,Wunderground v.1.15,2013-01-07 04:03:00,
2013-01-06 20:13:00,49.7,44.7,30.04,ENE,76,0.0,0.0,83,0.00,,,0.09,0,Wunderground v.1.15,2013-01-07 04:13:00,
2013-01-06 20:18:00,49.7,44.7,30.04,ENE,76,0.0,0.0,83,0.00,,,0.09,0,Wunderground v.1.15,2013-01-07 04:18:00,
2013-01-06 20:28:00,49.7,44.7,30.04,ENE,76,0.0,0.0,83,0.00,,,0.09,0,Wunderground v.1.15,2013-01-07 04:28:00,
2013-01-06 20:38:00,49.6,45.0,30.03,ENE,76,0.0,0.0,84,0.00,,,0.09,0,Wunderground v.1.15,2013-01-07 04:38:00,
2013-01-06 20:48:00,49.5,44.9,30.03,ENE,77,0.0,3.0,84,0.00,,,0.09,0,Wunderground v.1.15,2013-01-07 04:48:00,
2013-01-06 20:53:00,49.4,44.8,30.03,ENE,76,0.0,3.0,84,0.00,,,0.09,0,Wunderground v.1.15,2013-01-07 04:53:00,
2013-01-06 21:03:00,49.3,44.7,30.03,ENE,77,1.0,1.0,84,0.00,,,0.09,0,Wunderground v.1.15,2013-01-07 05:03:00,
2013-01-06 21:08:00,49.3,44.7,30.03,ENE,77,0.0,0.0,84,0.00,,,0.09,0,Wunderground v.1.15,2013-01-07 05:08:00,
2013-01-06 21:13:00,49.3,44.7,30.03,ENE,77,0.0,0.0,84,0.00,,,0.09,0,Wunderground v.1.15,2013-01-07 05:13:00,
2013-01-06 21:18:00,49.3,44.7,30.03,ENE,77,0.0,0.0,84,0.00,,,0.09,0,Wunderground v.1.15,2013-01-07 05:18:00,
2013-01-06 21:28:00,49.3,44.7,30.03,ENE,77,0.0,0.0,84,0.00,,,0.09,0,Wunderground v.1.15,2013-01-07 05:28:00,
2013-01-06 21:33:00,49.4,44.8,30.03,ENE,77,0.0,0.0,84,0.00,,,0.09,0,Wunderground v.1.15,2013-01-07 05:33:00,
2013-01-06 21:43:00,49.4,44.8,30.03,ENE,77,0.0,0.0,84,0.00,,,0.09,0,Wunderground v.1.15,2013-01-07 05:43:00,
2013-01-06 21:53:00,49.2,44.6,30.02,ENE,77,0.0,0.0,84,0.00,,,0.09,0,Wunderground v.1.15,2013-01-07 05:53:00,
2013-01-06 21:58:00,49.2,44.6,30.02,ENE,77,0.0,0.0,84,0.00,,,0.09,0,Wunderground v.1.15,2013-01-07 05:58:00,
2013-01-06 22:08:00,49.2,44.6,30.02,ENE,77,0.0,0.0,84,0.00,,,0.09,0,Wunderground v.1.15,2013-01-07 06:08:00,
2013-01-06 22:18:00,48.8,44.2,30.01,ENE,77,0.0,0.0,84,0.00,,,0.09,0,Wunderground v.1.15,2013-01-07 06:18:00,
2013-01-06 22:23:00,48.7,44.1,30.01,ENE,77,0.0,0.0,84,0.00,,,0.09,0,Wunderground v.1.15,2013-01-07 06:23:00,
2013-01-06 22:33:00,48.4,43.5,30.01,ENE,76,0.0,0.0,83,0.00,,,0.09,0,Wunderground v.1.15,2013-01-07 06:33:00,
2013-01-06 22:38:00,48.2,43.3,30.02,ENE,77,0.0,0.0,83,0.00,,,0.09,0,Wunderground v.1.15,2013-01-07 06:38:00,
2013-01-06 22:48:00,47.9,43.0,30.02,ENE,76,0.0,0.0,83,0.00,,,0.09,0,Wunderground v.1.15,2013-01-07 06:48:00,
2013-01-06 22:58:00,48.0,43.4,30.03,ENE,77,0.0,0.0,84,0.00,,,0.09,0,Wunderground v.1.15,2013-01-07 06:58:00,
2013-01-06 23:03:00,48.1,43.5,30.02,ENE,77,0.0,0.0,84,0.00,,,0.09,0,Wunderground v.1.15,2013-01-07 07:03:00,
2013-01-06 23:13:00,48.0,43.4,30.02,ENE,77,0.0,0.0,84,0.00,,,0.09,0,Wunderground v.1.15,2013-01-07 07:13:00,
2013-01-06 23:23:00,47.7,43.1,30.02,ENE,76,0.0,0.0,84,0.00,,,0.09,0,Wunderground v.1.15,2013-01-07 07:23:00,
2013-01-06 23:33:00,47.3,42.7,30.02,ENE,76,0.0,0.0,84,0.00,,,0.09,0,Wunderground v.1.15,2013-01-07 07:33:00,
2013-01-06 23:43:00,47.0,42.4,30.02,ENE,76,0.0,0.0,84,0.00,,,0.09,0,Wunderground v.1.15,2013-01-07 07:43:00,
2013-01-06 23:48:00,46.7,42.1,30.02,ENE,77,0.0,0.0,84,0.00,,,0.09,0,Wunderground v.1.15,2013-01-07 07:48:00,
2013-01-06 23:58:00,46.4,41.8,30.02,ENE,76,0.0,0.0,84,0.00,,,0.09,0,Wunderground v.1.15,2013-01-07 07:58:00,